Time;durP1;ratioP1;P1;durP2;ratioP2;P2;SDS_P1;SDS_P2;PMS_P1;PMS_P2;Temp;Humidity;BMP_temperature;BMP_pressure;BME280_temperature;BME280_humidity;BME280_pressure;Samples;Min_cycle;Max_cycle;Signal;HPM_P1;HPM_P2
2022/04/15 00:03:15;;;;;;;4.22;2.35;;;;;;;15.57;58.23;98191.53;10556487;28;20040;-85
2022/04/15 00:08:36;;;;;;;5.18;2.33;;;;;;;15.51;58.78;98185.56;10555748;28;20069;-83
2022/04/15 00:13:58;;;;;;;4.43;2.50;;;;;;;15.49;58.62;98185.47;10584297;28;20043;-84
2022/04/15 00:19:19;;;;;;;6.15;3.10;;;;;;;15.48;58.57;98188.91;10555536;28;20044;-84
2022/04/15 00:24:39;;;;;;;4.68;2.80;;;;;;;15.43;58.96;98194.28;10555489;28;20047;-85
2022/04/15 00:30:00;;;;;;;4.55;2.80;;;;;;;15.47;58.92;98179.75;10555348;28;20048;-84
2022/04/15 00:35:21;;;;;;;5.72;3.25;;;;;;;15.44;58.96;98175.34;10555194;28;20118;-84
2022/04/15 00:40:59;;;;;;;5.55;3.40;;;;;;;15.37;59.37;98188.34;10343942;23;20527;-82
2022/04/15 00:46:34;;;;;;;3.58;2.72;;;;;;;15.37;59.69;98179.19;10386749;23;20053;-82
2022/04/15 00:51:55;;;;;;;6.35;3.17;;;;;;;15.31;59.81;98181.66;10375825;28;20439;-84
2022/04/15 00:57:16;;;;;;;4.38;3.25;;;;;;;15.26;59.82;98182.78;10362762;28;20515;-83
2022/04/15 01:02:49;;;;;;;6.35;2.78;;;;;;;15.08;60.25;98186.00;10397226;23;20054;-84
2022/04/15 01:08:23;;;;;;;4.63;3.45;;;;;;;15.01;60.50;98192.63;10346276;23;20062;-82
2022/04/15 01:13:59;;;;;;;5.57;3.70;;;;;;;15.02;60.65;98188.47;10409293;23;20144;-80
2022/04/15 01:19:38;;;;;;;6.68;4.20;;;;;;;14.95;60.97;98192.28;10320477;23;20059;-82
2022/04/15 01:25:12;;;;;;;5.97;4.25;;;;;;;15.01;60.86;98203.88;10356456;23;20062;-81
2022/04/15 01:30:43;;;;;;;7.47;4.80;;;;;;;15.04;61.05;98196.28;10402964;23;20132;-79
2022/04/15 01:36:23;;;;;;;9.00;6.00;;;;;;;14.98;60.82;98179.81;10377371;23;20051;-79
2022/04/15 01:41:59;;;;;;;7.32;6.22;;;;;;;14.86;60.88;98181.91;10369283;23;20059;-78
2022/04/15 01:47:30;;;;;;;7.97;6.93;;;;;;;14.75;61.26;98185.47;10456669;23;20074;-80
2022/04/15 01:53:00;;;;;;;8.32;6.82;;;;;;;14.58;61.65;98183.81;10447304;23;20134;-77
2022/04/15 01:58:22;;;;;;;9.38;7.32;;;;;;;14.44;61.88;98180.88;10518939;23;20038;-77
2022/04/15 02:03:53;;;;;;;10.63;7.10;;;;;;;14.33;61.70;98182.34;10569449;23;20064;-80
2022/04/15 02:09:14;;;;;;;9.95;7.78;;;;;;;14.17;62.18;98189.06;10587034;23;20051;-78
2022/04/15 02:14:46;;;;;;;8.93;6.82;;;;;;;14.01;62.67;98183.22;11034564;23;20110;-79
2022/04/15 04:01:03;;;;;;;7.97;5.70;;;;;;;13.17;65.48;98196.84;10585273;23;21009;31
2022/04/15 05:16:06;;;;;;;6.38;5.10;;;;;;;14.51;65.07;98229.75;11318438;23;20097;-80
2022/04/15 05:21:36;;;;;;;7.60;5.07;;;;;;;15.39;64.94;98236.28;10361714;24;20112;-81
2022/04/15 05:26:58;;;;;;;6.20;5.07;;;;;;;16.67;64.58;98236.81;10093182;29;20049;-85
2022/04/15 05:32:21;;;;;;;7.22;4.63;;;;;;;18.74;62.53;98250.91;10083372;29;20432;-85
2022/04/15 05:37:42;;;;;;;5.03;3.93;;;;;;;22.89;55.37;98256.41;10109172;29;20079;-83
2022/04/15 05:43:03;;;;;;;5.75;3.83;;;;;;;26.15;48.24;98258.19;10108955;29;20044;-83
2022/04/15 05:48:25;;;;;;;3.60;2.90;;;;;;;26.68;48.03;98258.91;10108958;29;20403;-82
2022/04/15 05:53:46;;;;;;;5.65;3.25;;;;;;;29.62;43.68;98262.91;10108870;29;20052;-82
2022/04/15 05:59:06;;;;;;;5.00;3.83;;;;;;;30.22;38.91;98271.50;10108702;29;20041;-82
2022/04/15 06:04:27;;;;;;;4.55;4.15;;;;;;;30.66;37.62;98267.78;10106759;29;20082;-82
2022/04/15 06:09:48;;;;;;;4.25;3.80;;;;;;;31.62;33.80;98274.41;10106556;29;20104;-82
2022/04/15 06:15:11;;;;;;;7.25;3.85;;;;;;;27.32;34.91;98269.63;10107739;29;20377;-82
2022/04/15 06:20:40;;;;;;;3.70;3.40;;;;;;;29.81;34.25;98275.13;10122281;29;20056;-81
2022/04/15 06:26:01;;;;;;;4.90;3.75;;;;;;;31.44;31.68;98283.19;10108088;29;20080;-83
2022/04/15 06:31:22;;;;;;;4.78;4.38;;;;;;;31.63;29.18;98290.25;10099506;29;20443;-82
2022/04/15 06:36:42;;;;;;;5.00;4.50;;;;;;;27.26;30.19;98295.38;10114578;29;20045;-83
2022/04/15 06:42:04;;;;;;;5.50;4.97;;;;;;;25.82;32.09;98297.75;10077136;29;20040;-82
2022/04/15 06:47:25;;;;;;;5.53;5.03;;;;;;;25.82;34.02;98302.75;10053543;29;20053;-82
2022/04/15 06:52:46;;;;;;;5.63;5.05;;;;;;;32.79;29.60;98299.25;10063805;29;20061;-85
2022/04/15 06:58:07;;;;;;;5.93;5.10;;;;;;;37.47;24.42;98294.97;10063645;29;20477;-85
2022/04/15 07:03:27;;;;;;;9.13;5.22;;;;;;;40.44;21.38;98298.41;10050242;29;20064;-85
2022/04/15 07:08:48;;;;;;;5.13;4.63;;;;;;;42.36;18.42;98298.00;10050603;29;20052;-85
2022/04/15 07:14:10;;;;;;;5.22;4.82;;;;;;;43.37;16.23;98288.91;10062972;29;20053;-84
2022/04/15 07:19:31;;;;;;;5.50;4.32;;;;;;;44.76;14.88;98296.81;10062844;29;20085;-85
2022/04/15 07:24:52;;;;;;;4.97;3.55;;;;;;;45.93;13.22;98298.84;10062840;29;20045;-86
2022/04/15 07:30:13;;;;;;;6.40;4.03;;;;;;;46.13;11.70;98291.59;10062518;29;20401;-85
2022/04/15 07:35:34;;;;;;;7.53;4.90;;;;;;;39.12;13.20;98300.91;10091598;29;20120;-87
2022/04/15 07:40:55;;;;;;;7.85;5.65;;;;;;;34.79;16.21;98296.78;10085989;29;20049;-87
2022/04/15 07:46:16;;;;;;;7.25;5.40;;;;;;;37.73;16.15;98285.34;10082082;29;20044;-85
2022/04/15 07:51:37;;;;;;;5.55;5.05;;;;;;;43.81;13.41;98282.69;10074125;29;20415;-85
2022/04/15 07:57:03;;;;;;;4.57;4.18;;;;;;;47.86;10.42;98281.44;10075034;29;20045;-85
2022/04/15 08:02:25;;;;;;;5.30;4.03;;;;;;;46.96;9.03;98281.41;10058309;29;20103;-85
2022/04/15 08:07:47;;;;;;;5.07;4.57;;;;;;;42.17;11.45;98284.31;10073110;29;20053;-86
2022/04/15 08:13:09;;;;;;;6.00;5.40;;;;;;;43.89;10.98;98276.31;10057666;29;20094;-87
2022/04/15 08:18:50;;;;;;;5.85;4.75;;;;;;;42.29;9.60;98277.81;10065426;29;20061;-85
2022/04/15 08:24:12;;;;;;;5.10;4.63;;;;;;;35.72;12.28;98276.56;10069166;29;20045;-86
2022/04/15 08:29:35;;;;;;;7.30;5.70;;;;;;;30.23;15.71;98272.94;10072577;29;20041;-86
2022/04/15 08:34:56;;;;;;;6.70;4.93;;;;;;;26.96;18.61;98267.81;10057963;29;20069;-84
2022/04/15 08:40:16;;;;;;;6.38;5.70;;;;;;;25.03;21.41;98270.63;10072411;29;20097;-84
2022/04/15 08:45:41;;;;;;;5.97;5.30;;;;;;;27.20;23.82;98269.50;10084865;29;20049;-86
2022/04/15 08:51:02;;;;;;;6.28;5.45;;;;;;;32.34;20.66;98274.50;10098750;29;20081;-87
2022/04/15 08:56:29;;;;;;;5.50;4.18;;;;;;;39.65;15.85;98278.34;10072754;29;20060;-87
2022/04/15 09:01:50;;;;;;;7.57;4.53;;;;;;;35.51;14.50;98285.03;10071659;29;20041;-86
2022/04/15 09:07:13;;;;;;;6.88;5.35;;;;;;;30.30;17.14;98283.69;10071261;29;20044;-84
2022/04/15 09:12:37;;;;;;;9.10;8.18;;;;;;;26.77;19.42;98274.75;10059059;29;20105;-83
2022/04/15 09:18:00;;;;;;;11.55;8.88;;;;;;;24.36;21.94;98289.25;10072041;29;20064;-83
2022/04/15 09:23:25;;;;;;;11.98;10.73;;;;;;;22.49;25.06;98296.53;10071575;29;20388;-83
2022/04/15 09:28:47;;;;;;;13.52;11.60;;;;;;;21.50;27.14;98296.94;10083732;29;20057;-82
2022/04/15 09:34:08;;;;;;;13.63;11.15;;;;;;;20.94;27.81;98297.16;10083901;29;20082;-83
2022/04/15 09:39:30;;;;;;;15.32;12.38;;;;;;;21.00;28.54;98303.03;10070650;29;20063;-84
2022/04/15 09:44:50;;;;;;;13.90;12.40;;;;;;;21.07;29.07;98299.03;10096454;29;20077;-84
2022/04/15 09:50:26;;;;;;;13.90;11.75;;;;;;;22.54;30.89;98287.44;10083200;29;20049;-84
2022/04/15 09:55:48;;;;;;;10.50;9.43;;;;;;;33.48;25.80;98286.78;10083074;29;20369;-88
2022/04/15 10:01:09;;;;;;;13.02;9.10;;;;;;;33.14;20.16;98288.00;10082985;29;20057;-85
2022/04/15 10:06:38;;;;;;;8.57;7.65;;;;;;;36.92;19.41;98293.72;10070860;29;20045;-90
2022/04/15 10:11:59;;;;;;;8.43;7.07;;;;;;;42.05;14.26;98284.91;10070088;29;20089;-87
2022/04/15 10:17:22;;;;;;;7.68;6.97;;;;;;;41.48;12.14;98293.59;10093007;29;20064;-88
2022/04/15 10:22:44;;;;;;;7.25;6.55;;;;;;;35.92;15.71;98287.69;10096826;29;20104;-88
2022/04/15 10:28:14;;;;;;;7.40;6.70;;;;;;;40.42;13.42;98280.19;10093440;29;20100;-89
2022/04/15 10:33:36;;;;;;;7.25;6.57;;;;;;;41.42;10.64;98288.06;10128850;29;20468;-87
2022/04/15 10:39:06;;;;;;;7.07;6.15;;;;;;;35.83;14.19;98304.59;10115902;29;20059;-87
2022/04/15 10:44:40;;;;;;;8.68;5.90;;;;;;;39.01;14.03;98305.69;10141096;29;20053;-87
2022/04/15 10:50:03;;;;;;;6.93;5.13;;;;;;;38.99;12.21;98308.66;10102370;29;20119;-86
2022/04/15 10:55:25;;;;;;;8.77;6.28;;;;;;;33.64;15.14;98308.97;10128318;29;20083;-86
2022/04/15 11:01:17;;;;;;;7.35;5.70;;;;;;;29.11;19.56;98331.09;10114511;29;20059;-86
2022/04/15 11:06:39;;;;;;;5.95;5.35;;;;;;;26.54;20.68;98336.75;10114143;29;20057;-82
2022/04/15 11:12:02;;;;;;;6.50;5.60;;;;;;;24.48;23.04;98332.28;10101529;29;20048;-82
2022/04/15 11:17:41;;;;;;;6.88;5.35;;;;;;;24.59;26.76;98333.97;10114000;29;20049;-83
2022/04/15 11:23:02;;;;;;;7.18;5.38;;;;;;;27.40;23.74;98338.47;10113489;29;20045;-83
2022/04/15 11:28:23;;;;;;;7.95;5.60;;;;;;;28.21;23.08;98319.13;10111225;29;20502;-83
2022/04/15 11:33:47;;;;;;;7.13;5.68;;;;;;;28.84;22.32;98341.00;10114013;29;20487;-83
2022/04/15 11:39:09;;;;;;;7.10;5.38;;;;;;;28.18;22.28;98331.28;10126443;29;20040;-84
2022/04/15 11:44:31;;;;;;;9.65;5.97;;;;;;;26.52;23.03;98345.28;10112750;29;20059;-83
2022/04/15 11:49:51;;;;;;;7.70;6.53;;;;;;;25.20;24.53;98346.66;10126074;29;20104;-83
2022/04/15 11:55:16;;;;;;;7.13;6.20;;;;;;;24.32;26.06;98338.38;10112538;29;20055;-83
2022/04/15 12:00:49;;;;;;;6.18;5.57;;;;;;;25.08;26.25;98360.69;10100833;29;20081;-83
2022/04/15 12:06:10;;;;;;;5.82;5.00;;;;;;;24.26;25.93;98361.75;10125254;29;20048;-83
2022/04/15 12:11:31;;;;;;;4.90;3.95;;;;;;;23.31;26.84;98357.19;10124932;29;20452;-83
2022/04/15 12:16:53;;;;;;;5.43;4.27;;;;;;;23.39;27.49;98360.28;10125286;29;20411;-81
2022/04/15 12:22:13;;;;;;;4.53;3.42;;;;;;;24.24;27.32;98356.00;10111238;29;20061;-83
2022/04/15 12:27:35;;;;;;;3.67;3.10;;;;;;;24.25;26.87;98346.03;10111724;29;20055;-83
2022/04/15 12:33:25;;;;;;;3.15;2.65;;;;;;;24.36;26.34;98354.84;10111251;29;20587;-83
2022/04/15 12:38:58;;;;;;;2.75;1.88;;;;;;;23.74;26.44;98343.34;10118230;29;20083;-83
2022/04/15 12:44:23;;;;;;;2.30;1.77;;;;;;;22.96;27.15;98352.66;10123626;29;20049;-82
2022/04/15 12:49:44;;;;;;;4.50;3.60;;;;;;;22.82;27.25;98346.56;10124190;29;20044;-83
2022/04/15 12:55:05;;;;;;;2.67;2.30;;;;;;;22.32;27.41;98332.28;10136399;29;20111;-84
2022/04/15 13:00:28;;;;;;;3.33;2.40;;;;;;;22.15;28.11;98331.06;10110472;29;20048;-84
2022/04/15 13:05:49;;;;;;;3.70;2.38;;;;;;;22.71;27.96;98359.75;10110035;29;20045;-84
2022/04/15 13:11:11;;;;;;;2.90;2.30;;;;;;;22.54;27.65;98358.56;10123044;29;20056;-84
2022/04/15 13:16:32;;;;;;;3.05;2.08;;;;;;;22.31;28.00;98362.13;10122827;29;20063;-84
2022/04/15 13:21:54;;;;;;;4.80;2.53;;;;;;;21.91;27.81;98358.69;10109391;29;20120;-83
2022/04/15 13:27:14;;;;;;;3.05;1.90;;;;;;;21.35;28.23;98344.03;10122609;29;20546;-84
2022/04/15 13:32:36;;;;;;;3.33;2.08;;;;;;;20.83;29.35;98358.47;10135312;29;20053;-84
2022/04/15 13:37:57;;;;;;;2.47;2.08;;;;;;;20.49;29.79;98362.88;10109234;29;20060;-84
2022/04/15 13:43:18;;;;;;;4.38;2.40;;;;;;;20.53;29.74;98352.41;10122135;29;20047;-84
2022/04/15 13:48:41;;;;;;;2.30;1.65;;;;;;;20.29;30.17;98357.84;10122142;29;20045;-84
2022/04/15 13:59:41;;;;;;;2.65;1.30;;;;;;;20.63;29.91;98359.81;10110975;29;19971;-84
2022/04/15 14:05:02;;;;;;;2.15;0.80;;;;;;;20.69;29.86;98369.31;10108770;29;20061;-84
2022/04/15 14:10:23;;;;;;;0.90;0.57;;;;;;;20.27;29.54;98354.94;10121592;29;20041;-84
2022/04/15 14:15:44;;;;;;;1.13;0.45;;;;;;;20.10;29.98;98369.84;10135515;29;20048;-83
2022/04/15 14:21:10;;;;;;;1.05;0.70;;;;;;;20.23;29.94;98382.38;10134151;29;20064;-84
2022/04/15 14:26:31;;;;;;;0.88;0.50;;;;;;;20.13;29.98;98379.88;10121409;29;20045;-84
2022/04/15 14:31:52;;;;;;;1.25;0.50;;;;;;;20.16;30.07;98378.56;10108402;29;20048;-84
2022/04/15 14:37:14;;;;;;;1.55;0.88;;;;;;;20.19;29.80;98380.13;10121035;29;20049;-84
2022/04/15 14:42:37;;;;;;;1.15;0.80;;;;;;;19.67;29.64;98387.91;10121426;29;20104;-85
2022/04/15 14:47:57;;;;;;;1.73;0.95;;;;;;;19.02;30.25;98382.28;10107938;29;20048;-85
2022/04/15 14:53:18;;;;;;;1.35;0.90;;;;;;;18.85;31.22;98382.91;10120715;29;20049;-85
2022/04/15 14:58:40;;;;;;;1.08;0.50;;;;;;;19.24;31.09;98393.84;10107584;29;20064;-85
2022/04/15 15:04:02;;;;;;;0.93;0.50;;;;;;;19.48;30.95;98391.31;10124900;29;20044;-85
2022/04/15 15:09:23;;;;;;;0.80;0.40;;;;;;;19.71;30.54;98410.75;10111418;29;20048;-84
2022/04/15 15:14:43;;;;;;;0.65;0.30;;;;;;;19.17;30.63;98412.63;10076174;29;20048;-85
2022/04/15 15:20:06;;;;;;;1.08;0.50;;;;;;;18.67;31.33;98401.88;10076108;29;20419;-85
2022/04/15 15:31:09;;;;;;;1.00;0.40;;;;;;;18.29;31.95;98416.34;10067080;29;20101;-83
2022/04/15 15:36:30;;;;;;;0.90;0.50;;;;;;;18.01;32.35;98429.81;10075742;29;20049;-85
2022/04/15 15:41:50;;;;;;;1.52;0.60;;;;;;;17.85;32.53;98433.94;10074917;29;20056;-87
2022/04/15 15:47:20;;;;;;;1.45;0.80;;;;;;;17.40;32.95;98445.75;10088723;29;20045;-84
2022/04/15 15:52:40;;;;;;;1.55;0.82;;;;;;;17.14;34.00;98431.00;10074331;29;20053;-87
2022/04/15 15:58:01;;;;;;;1.30;0.70;;;;;;;17.02;33.88;98441.66;10074167;29;20041;-88
2022/04/15 16:03:22;;;;;;;1.73;1.00;;;;;;;16.86;34.59;98439.41;10073933;29;20041;-83
2022/04/15 16:08:43;;;;;;;1.55;0.90;;;;;;;16.55;34.75;98451.09;10099485;29;20044;-84
2022/04/15 16:14:05;;;;;;;1.20;0.80;;;;;;;16.19;35.77;98441.34;10060916;29;20049;-83
2022/04/15 16:19:26;;;;;;;1.23;0.77;;;;;;;16.01;36.53;98465.63;10073866;29;20085;-84
2022/04/15 16:24:47;;;;;;;1.08;0.80;;;;;;;15.82;36.48;98472.28;10073122;29;20053;-86
2022/04/15 16:30:09;;;;;;;1.20;0.82;;;;;;;15.41;37.18;98486.75;10073034;29;20049;-89
2022/04/15 16:35:30;;;;;;;0.98;0.70;;;;;;;15.20;37.73;98483.31;10073242;29;20052;-85
2022/04/15 16:40:51;;;;;;;1.70;1.00;;;;;;;15.15;38.52;98487.94;10059778;29;20075;-85
2022/04/15 16:46:12;;;;;;;2.20;1.10;;;;;;;15.06;38.56;98478.31;10072446;29;20059;-87
2022/04/15 16:51:33;;;;;;;1.52;1.08;;;;;;;15.03;38.84;98481.56;10072681;29;20060;-84
2022/04/15 17:02:43;;;;;;;1.48;1.10;;;;;;;14.81;39.69;98490.09;10132921;23;20393;-80
2022/04/15 17:08:14;;;;;;;3.55;1.23;;;;;;;14.83;39.80;98489.47;10138031;24;20057;-83
2022/04/15 17:13:42;;;;;;;4.20;1.92;;;;;;;14.68;39.82;98499.13;10100909;29;20044;-80
2022/04/15 17:19:18;;;;;;;2.22;1.60;;;;;;;14.48;40.52;98495.75;10194337;23;20087;-78
2022/04/15 17:24:39;;;;;;;3.55;1.50;;;;;;;14.41;41.17;98510.69;10101984;29;20052;-79
2022/04/15 17:30:00;;;;;;;1.98;1.30;;;;;;;14.25;41.59;98498.41;10329482;23;20026;-86
2022/04/15 17:35:33;;;;;;;3.20;1.42;;;;;;;14.06;43.06;98501.38;11819576;23;20043;-83
2022/04/15 17:47:27;;;;;;;2.42;1.50;;;;;;;14.04;43.38;98513.94;11247565;23;20065;-81
2022/04/15 17:52:51;;;;;;;1.85;1.60;;;;;;;13.96;43.34;98527.41;10122924;29;20108;-79
2022/04/15 17:58:22;;;;;;;2.88;1.70;;;;;;;13.94;43.26;98532.91;10754423;23;20079;-77
2022/04/15 18:03:43;;;;;;;3.45;1.33;;;;;;;13.84;43.66;98532.22;10373203;23;20112;-80
2022/04/15 18:15:19;;;;;;;3.40;1.83;;;;;;;13.70;44.62;98551.66;11844738;23;20084;-78
2022/04/15 19:49:00;;;;;;;2.15;0.90;;;;;;;11.80;49.27;98608.66;10192910;23;20037;-84
2022/04/15 19:54:21;;;;;;;1.85;1.10;;;;;;;11.62;49.29;98600.31;10125388;29;20096;-84
2022/04/15 20:06:04;;;;;;;1.70;1.10;;;;;;;11.32;50.05;98589.56;12283973;23;20845;-73
2022/04/15 20:11:26;;;;;;;1.92;0.93;;;;;;;11.26;50.41;98586.28;10120090;23;20105;-82
2022/04/15 20:16:48;;;;;;;1.85;0.88;;;;;;;11.32;50.60;98581.19;10097077;29;20040;-80
2022/04/15 20:22:10;;;;;;;2.67;1.10;;;;;;;11.51;51.23;98592.47;10995771;23;20039;-78
2022/04/15 20:27:33;;;;;;;1.48;1.10;;;;;;;11.60;50.90;98582.63;10067771;29;20096;-83
2022/04/15 20:32:55;;;;;;;1.95;1.30;;;;;;;11.52;50.94;98591.13;10084532;29;20049;-84
2022/04/15 20:38:16;;;;;;;1.60;1.20;;;;;;;11.46;51.10;98605.38;10085056;29;20053;-84
2022/04/15 20:43:38;;;;;;;1.95;1.15;;;;;;;11.53;51.82;98598.19;10084324;29;20038;-84
2022/04/15 20:54:39;;;;;;;3.25;1.70;;;;;;;11.62;51.41;98599.56;10097222;29;20127;-84
2022/04/15 21:00:22;;;;;;;2.10;1.30;;;;;;;11.60;51.67;98602.94;10086067;29;20056;-83
2022/04/15 21:11:59;;;;;;;2.38;1.73;;;;;;;11.73;51.60;98608.13;10130720;23;20070;-85
2022/04/15 21:17:22;;;;;;;1.83;1.17;;;;;;;11.84;51.76;98612.47;10081297;29;20053;-84
2022/04/15 21:22:44;;;;;;;2.50;1.40;;;;;;;11.89;51.74;98599.56;10096414;29;20045;-84
2022/04/15 21:28:06;;;;;;;2.15;1.52;;;;;;;11.84;51.96;98594.97;10067798;29;20050;-85
2022/04/15 21:33:28;;;;;;;3.13;2.35;;;;;;;11.82;51.88;98606.00;10095701;29;20037;-84
2022/04/15 21:38:49;;;;;;;4.00;1.52;;;;;;;11.72;51.87;98603.88;10080810;29;20056;-83
2022/04/15 21:44:11;;;;;;;2.08;1.65;;;;;;;11.77;51.86;98610.50;10083012;29;20033;-84
2022/04/15 21:49:33;;;;;;;1.73;1.38;;;;;;;11.79;51.79;98604.34;10082552;29;20086;-84
2022/04/15 21:54:54;;;;;;;2.53;1.70;;;;;;;11.81;52.03;98615.72;10067258;29;20082;-84
2022/04/15 22:00:56;;;;;;;2.20;1.50;;;;;;;11.73;52.20;98608.13;10083238;29;20049;-85
2022/04/15 22:06:18;;;;;;;2.00;1.50;;;;;;;11.64;51.90;98608.84;10080119;29;20049;-84
2022/04/15 22:11:40;;;;;;;2.10;1.50;;;;;;;11.60;52.05;98613.41;10085051;29;20078;-83
2022/04/15 22:17:04;;;;;;;2.72;1.35;;;;;;;11.66;52.05;98611.78;10090087;29;20029;-84
2022/04/15 22:22:25;;;;;;;2.38;1.38;;;;;;;11.64;52.05;98611.63;10077292;29;20037;-84
2022/04/15 22:27:50;;;;;;;2.67;1.63;;;;;;;11.55;52.72;98620.72;10089755;29;20055;-82
2022/04/15 22:33:16;;;;;;;3.05;1.85;;;;;;;11.50;52.72;98627.31;10075300;29;20045;-85
2022/04/15 22:38:38;;;;;;;3.70;2.30;;;;;;;11.46;53.09;98632.59;10077394;29;20050;-83
2022/04/15 22:43:59;;;;;;;2.47;2.03;;;;;;;11.42;52.72;98637.88;10075757;29;20033;-84
2022/04/15 22:49:21;;;;;;;2.97;2.08;;;;;;;11.37;53.74;98653.56;10088016;29;20033;-83
2022/04/15 23:00:26;;;;;;;2.90;1.38;;;;;;;11.02;54.12;98658.50;10090032;29;20064;-83
2022/04/15 23:05:48;;;;;;;2.10;1.75;;;;;;;10.96;54.39;98671.22;10076025;29;20036;-84
2022/04/15 23:11:10;;;;;;;4.88;3.70;;;;;;;10.73;54.04;98669.44;10086916;29;20061;-84
2022/04/15 23:16:32;;;;;;;5.40;4.13;;;;;;;10.50;54.52;98675.22;10087737;29;20044;-84
2022/04/15 23:21:54;;;;;;;5.40;4.15;;;;;;;10.32;55.59;98670.94;10073726;29;20135;-83
2022/04/15 23:27:16;;;;;;;6.13;3.97;;;;;;;10.19;55.46;98676.78;10074867;29;20075;-85
2022/04/15 23:32:38;;;;;;;6.85;3.92;;;;;;;10.18;55.55;98672.53;10084350;29;20041;-82
2022/04/15 23:38:00;;;;;;;5.93;4.25;;;;;;;10.25;55.61;98703.19;10086177;29;20040;-84
2022/04/15 23:43:21;;;;;;;5.32;4.13;;;;;;;10.27;55.21;98700.56;10073785;29;20049;-84
2022/04/15 23:48:43;;;;;;;6.97;4.65;;;;;;;10.02;56.50;98700.53;10073966;29;20500;-84
2022/04/15 23:54:06;;;;;;;6.70;5.25;;;;;;;9.84;56.17;98704.53;10086585;29;20049;-83
2022/04/15 23:59:28;;;;;;;7.72;5.63;;;;;;;9.65;57.29;98709.88;10086427;29;20122;-84
